sensor_id;sensor_type;location;lat;lon;timestamp;P1;durP1;ratioP1;P2;durP2;ratioP2
65799;SDS011;52544;48.116;11.660;2023-03-01T00:00:25;31.77;;;13.68;;
65799;SDS011;52544;48.116;11.660;2023-03-01T00:03:03;26.23;;;12.27;;
65799;SDS011;52544;48.116;11.660;2023-03-01T00:06:05;25.50;;;11.35;;
65799;SDS011;52544;48.116;11.660;2023-03-01T00:09:02;29.25;;;13.45;;
65799;SDS011;52544;48.116;11.660;2023-03-01T00:11:29;26.20;;;12.52;;
65799;SDS011;52544;48.116;11.660;2023-03-01T00:13:59;26.92;;;12.68;;
65799;SDS011;52544;48.116;11.660;2023-03-01T00:16:45;27.73;;;12.98;;
65799;SDS011;52544;48.116;11.660;2023-03-01T00:19:12;34.00;;;13.75;;
65799;SDS011;52544;48.116;11.660;2023-03-01T00:21:39;25.52;;;13.07;;
65799;SDS011;52544;48.116;11.660;2023-03-01T00:24:23;29.92;;;13.50;;
65799;SDS011;52544;48.116;11.660;2023-03-01T00:26:52;37.47;;;12.30;;
65799;SDS011;52544;48.116;11.660;2023-03-01T00:29:18;25.77;;;12.52;;
65799;SDS011;52544;48.116;11.660;2023-03-01T00:31:44;25.17;;;12.93;;
65799;SDS011;52544;48.116;11.660;2023-03-01T00:34:24;27.23;;;12.30;;
65799;SDS011;52544;48.116;11.660;2023-03-01T00:36:58;31.25;;;12.27;;
65799;SDS011;52544;48.116;11.660;2023-03-01T00:39:45;29.10;;;12.43;;
65799;SDS011;52544;48.116;11.660;2023-03-01T00:42:23;26.30;;;13.00;;
65799;SDS011;52544;48.116;11.660;2023-03-01T00:44:49;27.05;;;12.68;;
65799;SDS011;52544;48.116;11.660;2023-03-01T00:47:23;29.48;;;13.27;;
65799;SDS011;52544;48.116;11.660;2023-03-01T00:50:26;25.58;;;12.15;;
65799;SDS011;52544;48.116;11.660;2023-03-01T00:52:52;29.55;;;12.93;;
65799;SDS011;52544;48.116;11.660;2023-03-01T00:55:19;32.50;;;13.02;;
65799;SDS011;52544;48.116;11.660;2023-03-01T00:57:44;26.30;;;13.35;;
65799;SDS011;52544;48.116;11.660;2023-03-01T01:00:10;27.02;;;12.45;;
65799;SDS011;52544;48.116;11.660;2023-03-01T01:02:36;31.08;;;13.43;;
65799;SDS011;52544;48.116;11.660;2023-03-01T01:05:14;29.38;;;12.98;;
65799;SDS011;52544;48.116;11.660;2023-03-01T01:07:39;29.60;;;13.45;;
65799;SDS011;52544;48.116;11.660;2023-03-01T01:10:05;26.45;;;12.18;;
65799;SDS011;52544;48.116;11.660;2023-03-01T01:13:09;26.45;;;12.82;;
65799;SDS011;52544;48.116;11.660;2023-03-01T01:15:34;27.00;;;12.55;;
65799;SDS011;52544;48.116;11.660;2023-03-01T01:18:12;27.27;;;12.60;;
65799;SDS011;52544;48.116;11.660;2023-03-01T01:21:18;25.55;;;11.95;;
65799;SDS011;52544;48.116;11.660;2023-03-01T01:23:45;25.42;;;12.18;;
65799;SDS011;52544;48.116;11.660;2023-03-01T01:26:25;30.33;;;12.68;;
65799;SDS011;52544;48.116;11.660;2023-03-01T01:28:52;28.05;;;12.75;;
65799;SDS011;52544;48.116;11.660;2023-03-01T01:31:18;26.05;;;12.95;;
65799;SDS011;52544;48.116;11.660;2023-03-01T01:33:44;29.77;;;12.75;;
65799;SDS011;52544;48.116;11.660;2023-03-01T01:36:19;30.17;;;12.90;;
65799;SDS011;52544;48.116;11.660;2023-03-01T01:38:44;27.73;;;12.68;;
65799;SDS011;52544;48.116;11.660;2023-03-01T01:41:24;41.15;;;14.27;;
65799;SDS011;52544;48.116;11.660;2023-03-01T01:44:19;25.67;;;12.68;;
65799;SDS011;52544;48.116;11.660;2023-03-01T01:47:26;28.48;;;13.25;;
65799;SDS011;52544;48.116;11.660;2023-03-01T01:49:53;32.25;;;14.73;;
65799;SDS011;52544;48.116;11.660;2023-03-01T01:52:36;34.70;;;15.27;;
65799;SDS011;52544;48.116;11.660;2023-03-01T01:55:04;56.92;;;23.98;;
65799;SDS011;52544;48.116;11.660;2023-03-01T01:57:36;60.35;;;23.80;;
65799;SDS011;52544;48.116;11.660;2023-03-01T02:00:05;65.38;;;27.00;;
65799;SDS011;52544;48.116;11.660;2023-03-01T02:03:02;31.88;;;13.90;;
65799;SDS011;52544;48.116;11.660;2023-03-01T02:05:34;31.67;;;14.38;;
65799;SDS011;52544;48.116;11.660;2023-03-01T02:08:01;28.20;;;13.40;;
65799;SDS011;52544;48.116;11.660;2023-03-01T02:10:27;28.60;;;14.05;;
65799;SDS011;52544;48.116;11.660;2023-03-01T02:13:01;29.00;;;13.05;;
65799;SDS011;52544;48.116;11.660;2023-03-01T02:15:30;28.02;;;13.05;;
65799;SDS011;52544;48.116;11.660;2023-03-01T02:18:25;30.98;;;13.40;;
65799;SDS011;52544;48.116;11.660;2023-03-01T02:21:38;23.90;;;11.50;;
65799;SDS011;52544;48.116;11.660;2023-03-01T02:24:47;28.00;;;12.52;;
65799;SDS011;52544;48.116;11.660;2023-03-01T02:27:26;27.27;;;13.50;;
65799;SDS011;52544;48.116;11.660;2023-03-01T02:29:58;27.23;;;13.38;;
65799;SDS011;52544;48.116;11.660;2023-03-01T02:32:48;28.70;;;13.70;;
65799;SDS011;52544;48.116;11.660;2023-03-01T02:35:15;26.42;;;12.73;;
65799;SDS011;52544;48.116;11.660;2023-03-01T02:37:42;29.10;;;13.20;;
65799;SDS011;52544;48.116;11.660;2023-03-01T02:40:10;25.48;;;12.20;;
65799;SDS011;52544;48.116;11.660;2023-03-01T02:42:51;27.00;;;12.93;;
65799;SDS011;52544;48.116;11.660;2023-03-01T02:45:26;25.60;;;13.10;;
65799;SDS011;52544;48.116;11.660;2023-03-01T02:48:10;26.58;;;12.85;;
65799;SDS011;52544;48.116;11.660;2023-03-01T02:51:02;29.52;;;13.35;;
65799;SDS011;52544;48.116;11.660;2023-03-01T02:56:43;26.15;;;12.63;;
65799;SDS011;52544;48.116;11.660;2023-03-01T02:59:22;25.13;;;11.43;;
65799;SDS011;52544;48.116;11.660;2023-03-01T03:02:23;31.23;;;12.63;;
65799;SDS011;52544;48.116;11.660;2023-03-01T03:05:13;24.10;;;11.40;;
65799;SDS011;52544;48.116;11.660;2023-03-01T03:08:15;29.15;;;13.40;;
65799;SDS011;52544;48.116;11.660;2023-03-01T03:11:07;25.67;;;12.77;;
65799;SDS011;52544;48.116;11.660;2023-03-01T03:13:41;28.08;;;12.95;;
65799;SDS011;52544;48.116;11.660;2023-03-01T03:16:24;30.42;;;12.65;;
65799;SDS011;52544;48.116;11.660;2023-03-01T03:19:15;27.98;;;12.63;;
65799;SDS011;52544;48.116;11.660;2023-03-01T03:22:12;29.92;;;13.18;;
65799;SDS011;52544;48.116;11.660;2023-03-01T03:24:38;28.00;;;12.93;;
65799;SDS011;52544;48.116;11.660;2023-03-01T03:27:16;28.23;;;13.50;;
65799;SDS011;52544;48.116;11.660;2023-03-01T03:29:41;27.08;;;12.55;;
65799;SDS011;52544;48.116;11.660;2023-03-01T03:32:23;27.52;;;12.75;;
65799;SDS011;52544;48.116;11.660;2023-03-01T03:35:05;28.35;;;13.38;;
65799;SDS011;52544;48.116;11.660;2023-03-01T03:38:15;27.40;;;12.57;;
65799;SDS011;52544;48.116;11.660;2023-03-01T03:41:24;26.05;;;12.15;;
65799;SDS011;52544;48.116;11.660;2023-03-01T03:44:30;25.25;;;12.30;;
65799;SDS011;52544;48.116;11.660;2023-03-01T03:47:36;29.13;;;13.05;;
65799;SDS011;52544;48.116;11.660;2023-03-01T03:50:46;25.73;;;12.35;;
65799;SDS011;52544;48.116;11.660;2023-03-01T03:53:54;25.38;;;11.73;;
65799;SDS011;52544;48.116;11.660;2023-03-01T03:57:00;25.67;;;12.68;;
65799;SDS011;52544;48.116;11.660;2023-03-01T04:00:08;31.30;;;13.93;;
65799;SDS011;52544;48.116;11.660;2023-03-01T04:03:18;25.23;;;12.80;;
65799;SDS011;52544;48.116;11.660;2023-03-01T04:06:25;29.23;;;13.32;;
65799;SDS011;52544;48.116;11.660;2023-03-01T04:09:31;30.38;;;13.15;;
65799;SDS011;52544;48.116;11.660;2023-03-01T04:12:37;25.55;;;12.68;;
65799;SDS011;52544;48.116;11.660;2023-03-01T04:15:43;26.63;;;13.00;;
65799;SDS011;52544;48.116;11.660;2023-03-01T04:18:49;24.25;;;12.02;;
65799;SDS011;52544;48.116;11.660;2023-03-01T04:21:56;28.15;;;12.55;;
65799;SDS011;52544;48.116;11.660;2023-03-01T04:25:02;28.17;;;13.55;;
65799;SDS011;52544;48.116;11.660;2023-03-01T04:28:08;29.17;;;13.00;;
65799;SDS011;52544;48.116;11.660;2023-03-01T04:31:16;30.27;;;13.48;;
65799;SDS011;52544;48.116;11.660;2023-03-01T04:34:23;30.58;;;13.95;;
65799;SDS011;52544;48.116;11.660;2023-03-01T04:37:32;26.13;;;12.40;;
65799;SDS011;52544;48.116;11.660;2023-03-01T04:40:38;26.70;;;12.52;;
65799;SDS011;52544;48.116;11.660;2023-03-01T04:43:45;28.08;;;12.82;;
65799;SDS011;52544;48.116;11.660;2023-03-01T04:46:51;34.90;;;12.95;;
65799;SDS011;52544;48.116;11.660;2023-03-01T04:49:57;30.92;;;13.25;;
65799;SDS011;52544;48.116;11.660;2023-03-01T04:53:02;28.77;;;12.90;;
65799;SDS011;52544;48.116;11.660;2023-03-01T04:56:08;30.77;;;12.80;;
65799;SDS011;52544;48.116;11.660;2023-03-01T04:59:15;28.83;;;12.43;;
65799;SDS011;52544;48.116;11.660;2023-03-01T05:01:47;28.38;;;12.55;;
65799;SDS011;52544;48.116;11.660;2023-03-01T05:04:12;26.13;;;13.10;;
65799;SDS011;52544;48.116;11.660;2023-03-01T05:07:15;25.27;;;12.45;;
65799;SDS011;52544;48.116;11.660;2023-03-01T05:09:44;26.65;;;13.52;;
65799;SDS011;52544;48.116;11.660;2023-03-01T05:12:23;26.77;;;12.40;;
65799;SDS011;52544;48.116;11.660;2023-03-01T05:15:23;30.88;;;12.65;;
65799;SDS011;52544;48.116;11.660;2023-03-01T05:17:56;32.10;;;13.25;;
65799;SDS011;52544;48.116;11.660;2023-03-01T05:20:34;30.00;;;14.63;;
65799;SDS011;52544;48.116;11.660;2023-03-01T05:23:20;27.65;;;12.32;;
65799;SDS011;52544;48.116;11.660;2023-03-01T05:26:04;28.70;;;12.68;;
65799;SDS011;52544;48.116;11.660;2023-03-01T05:28:31;28.40;;;13.30;;
65799;SDS011;52544;48.116;11.660;2023-03-01T05:31:18;29.35;;;12.65;;
65799;SDS011;52544;48.116;11.660;2023-03-01T05:34:25;24.00;;;12.15;;
65799;SDS011;52544;48.116;11.660;2023-03-01T05:36:54;30.65;;;12.90;;
65799;SDS011;52544;48.116;11.660;2023-03-01T05:39:23;34.95;;;13.48;;
65799;SDS011;52544;48.116;11.660;2023-03-01T05:42:03;26.55;;;12.60;;
65799;SDS011;52544;48.116;11.660;2023-03-01T05:44:29;28.55;;;13.25;;
65799;SDS011;52544;48.116;11.660;2023-03-01T05:47:16;27.20;;;12.82;;
65799;SDS011;52544;48.116;11.660;2023-03-01T05:49:57;34.78;;;14.85;;
65799;SDS011;52544;48.116;11.660;2023-03-01T05:52:22;32.15;;;14.35;;
65799;SDS011;52544;48.116;11.660;2023-03-01T05:55:01;28.02;;;13.55;;
65799;SDS011;52544;48.116;11.660;2023-03-01T05:57:28;27.00;;;13.48;;
65799;SDS011;52544;48.116;11.660;2023-03-01T06:00:24;28.85;;;13.30;;
65799;SDS011;52544;48.116;11.660;2023-03-01T06:03:24;26.88;;;13.23;;
65799;SDS011;52544;48.116;11.660;2023-03-01T06:05:49;27.98;;;12.48;;
65799;SDS011;52544;48.116;11.660;2023-03-01T06:08:14;30.02;;;12.95;;
65799;SDS011;52544;48.116;11.660;2023-03-01T06:10:40;31.38;;;14.15;;
65799;SDS011;52544;48.116;11.660;2023-03-01T06:13:05;30.17;;;13.68;;
65799;SDS011;52544;48.116;11.660;2023-03-01T06:15:31;28.50;;;12.90;;
65799;SDS011;52544;48.116;11.660;2023-03-01T06:17:57;32.38;;;14.18;;
65799;SDS011;52544;48.116;11.660;2023-03-01T06:20:26;32.15;;;14.00;;
65799;SDS011;52544;48.116;11.660;2023-03-01T06:23:08;25.45;;;12.52;;
65799;SDS011;52544;48.116;11.660;2023-03-01T06:25:43;32.83;;;13.60;;
65799;SDS011;52544;48.116;11.660;2023-03-01T06:28:24;28.38;;;13.18;;
65799;SDS011;52544;48.116;11.660;2023-03-01T06:31:26;30.33;;;13.48;;
65799;SDS011;52544;48.116;11.660;2023-03-01T06:34:25;30.92;;;14.25;;
65799;SDS011;52544;48.116;11.660;2023-03-01T06:37:02;29.27;;;14.10;;
65799;SDS011;52544;48.116;11.660;2023-03-01T06:39:30;32.17;;;13.65;;
65799;SDS011;52544;48.116;11.660;2023-03-01T06:41:56;31.02;;;12.38;;
65799;SDS011;52544;48.116;11.660;2023-03-01T06:44:21;30.48;;;13.75;;
65799;SDS011;52544;48.116;11.660;2023-03-01T06:46:47;34.13;;;13.60;;
65799;SDS011;52544;48.116;11.660;2023-03-01T06:49:12;30.10;;;13.73;;
65799;SDS011;52544;48.116;11.660;2023-03-01T06:51:59;32.88;;;13.63;;
65799;SDS011;52544;48.116;11.660;2023-03-01T06:54:49;27.77;;;12.52;;
65799;SDS011;52544;48.116;11.660;2023-03-01T06:57:57;29.38;;;13.43;;
65799;SDS011;52544;48.116;11.660;2023-03-01T07:00:26;33.45;;;13.63;;
65799;SDS011;52544;48.116;11.660;2023-03-01T07:03:11;28.02;;;12.43;;
65799;SDS011;52544;48.116;11.660;2023-03-01T07:05:53;35.83;;;13.93;;
65799;SDS011;52544;48.116;11.660;2023-03-01T07:08:18;31.35;;;13.30;;
65799;SDS011;52544;48.116;11.660;2023-03-01T07:10:44;32.00;;;13.30;;
65799;SDS011;52544;48.116;11.660;2023-03-01T07:13:24;28.67;;;13.20;;
65799;SDS011;52544;48.116;11.660;2023-03-01T07:15:50;27.63;;;13.15;;
65799;SDS011;52544;48.116;11.660;2023-03-01T07:18:21;28.83;;;13.77;;
65799;SDS011;52544;48.116;11.660;2023-03-01T07:21:24;29.13;;;12.65;;
65799;SDS011;52544;48.116;11.660;2023-03-01T07:24:14;28.25;;;13.30;;
65799;SDS011;52544;48.116;11.660;2023-03-01T07:27:24;32.90;;;13.02;;
65799;SDS011;52544;48.116;11.660;2023-03-01T07:29:49;31.25;;;12.88;;
65799;SDS011;52544;48.116;11.660;2023-03-01T07:32:14;32.33;;;14.15;;
65799;SDS011;52544;48.116;11.660;2023-03-01T07:34:40;31.33;;;14.70;;
65799;SDS011;52544;48.116;11.660;2023-03-01T07:37:11;29.52;;;13.23;;
65799;SDS011;52544;48.116;11.660;2023-03-01T07:39:36;30.38;;;13.20;;
65799;SDS011;52544;48.116;11.660;2023-03-01T07:42:11;30.77;;;13.18;;
65799;SDS011;52544;48.116;11.660;2023-03-01T07:44:45;28.75;;;13.15;;
65799;SDS011;52544;48.116;11.660;2023-03-01T07:47:33;27.58;;;13.23;;
65799;SDS011;52544;48.116;11.660;2023-03-01T07:50:13;30.20;;;13.18;;
65799;SDS011;52544;48.116;11.660;2023-03-01T07:52:40;31.58;;;13.25;;
65799;SDS011;52544;48.116;11.660;2023-03-01T07:55:05;32.72;;;14.15;;
65799;SDS011;52544;48.116;11.660;2023-03-01T07:57:53;32.58;;;13.93;;
65799;SDS011;52544;48.116;11.660;2023-03-01T08:00:24;28.05;;;13.20;;
65799;SDS011;52544;48.116;11.660;2023-03-01T08:03:27;28.83;;;12.90;;
65799;SDS011;52544;48.116;11.660;2023-03-01T08:06:08;30.65;;;13.05;;
65799;SDS011;52544;48.116;11.660;2023-03-01T08:08:34;28.38;;;13.93;;
65799;SDS011;52544;48.116;11.660;2023-03-01T08:11:11;34.25;;;13.75;;
65799;SDS011;52544;48.116;11.660;2023-03-01T08:13:50;33.17;;;14.43;;
65799;SDS011;52544;48.116;11.660;2023-03-01T08:16:15;32.22;;;13.45;;
65799;SDS011;52544;48.116;11.660;2023-03-01T08:18:52;35.33;;;14.55;;
65799;SDS011;52544;48.116;11.660;2023-03-01T08:21:24;33.65;;;14.30;;
65799;SDS011;52544;48.116;11.660;2023-03-01T08:23:49;31.38;;;13.23;;
65799;SDS011;52544;48.116;11.660;2023-03-01T08:26:52;35.05;;;14.70;;
65799;SDS011;52544;48.116;11.660;2023-03-01T08:29:23;31.10;;;13.85;;
65799;SDS011;52544;48.116;11.660;2023-03-01T08:31:54;29.98;;;13.68;;
65799;SDS011;52544;48.116;11.660;2023-03-01T08:34:25;31.75;;;13.80;;
65799;SDS011;52544;48.116;11.660;2023-03-01T08:36:51;32.85;;;13.90;;
65799;SDS011;52544;48.116;11.660;2023-03-01T08:39:26;29.75;;;13.52;;
65799;SDS011;52544;48.116;11.660;2023-03-01T08:41:58;36.72;;;13.30;;
65799;SDS011;52544;48.116;11.660;2023-03-01T08:44:26;30.35;;;14.00;;
65799;SDS011;52544;48.116;11.660;2023-03-01T08:47:00;30.77;;;13.40;;
65799;SDS011;52544;48.116;11.660;2023-03-01T08:49:27;33.20;;;14.52;;
65799;SDS011;52544;48.116;11.660;2023-03-01T08:52:14;29.63;;;14.20;;
65799;SDS011;52544;48.116;11.660;2023-03-01T08:54:39;29.95;;;13.55;;
65799;SDS011;52544;48.116;11.660;2023-03-01T08:57:04;32.72;;;13.50;;
65799;SDS011;52544;48.116;11.660;2023-03-01T08:59:30;31.88;;;13.85;;
65799;SDS011;52544;48.116;11.660;2023-03-01T09:01:55;38.03;;;16.02;;
65799;SDS011;52544;48.116;11.660;2023-03-01T09:04:21;34.70;;;13.35;;
65799;SDS011;52544;48.116;11.660;2023-03-01T09:06:46;34.67;;;14.07;;
65799;SDS011;52544;48.116;11.660;2023-03-01T09:09:14;30.63;;;13.93;;
65799;SDS011;52544;48.116;11.660;2023-03-01T09:11:41;37.00;;;15.38;;
65799;SDS011;52544;48.116;11.660;2023-03-01T09:14:08;33.55;;;14.43;;
65799;SDS011;52544;48.116;11.660;2023-03-01T09:16:48;35.85;;;14.90;;
65799;SDS011;52544;48.116;11.660;2023-03-01T09:19:16;28.30;;;13.32;;
65799;SDS011;52544;48.116;11.660;2023-03-01T09:21:50;32.65;;;13.88;;
65799;SDS011;52544;48.116;11.660;2023-03-01T09:24:50;30.40;;;14.35;;
65799;SDS011;52544;48.116;11.660;2023-03-01T09:27:24;32.90;;;14.60;;
65799;SDS011;52544;48.116;11.660;2023-03-01T09:29:56;37.10;;;15.35;;
65799;SDS011;52544;48.116;11.660;2023-03-01T09:32:48;35.65;;;14.82;;
65799;SDS011;52544;48.116;11.660;2023-03-01T09:35:14;32.75;;;14.57;;
65799;SDS011;52544;48.116;11.660;2023-03-01T09:38:09;31.45;;;14.30;;
65799;SDS011;52544;48.116;11.660;2023-03-01T09:41:24;30.75;;;13.68;;
65799;SDS011;52544;48.116;11.660;2023-03-01T09:44:29;30.77;;;13.95;;
65799;SDS011;52544;48.116;11.660;2023-03-01T09:46:59;27.63;;;13.27;;
65799;SDS011;52544;48.116;11.660;2023-03-01T09:49:26;33.40;;;13.75;;
65799;SDS011;52544;48.116;11.660;2023-03-01T09:52:30;37.08;;;14.13;;
65799;SDS011;52544;48.116;11.660;2023-03-01T09:54:57;30.00;;;13.55;;
65799;SDS011;52544;48.116;11.660;2023-03-01T09:57:28;27.27;;;13.38;;
65799;SDS011;52544;48.116;11.660;2023-03-01T10:00:47;31.40;;;13.93;;
65799;SDS011;52544;48.116;11.660;2023-03-01T10:03:04;34.22;;;14.02;;
65799;SDS011;52544;48.116;11.660;2023-03-01T10:05:38;30.38;;;12.73;;
65799;SDS011;52544;48.116;11.660;2023-03-01T10:11:29;36.08;;;13.82;;
65799;SDS011;52544;48.116;11.660;2023-03-01T10:14:05;27.25;;;13.25;;
65799;SDS011;52544;48.116;11.660;2023-03-01T10:17:00;30.10;;;13.45;;
65799;SDS011;52544;48.116;11.660;2023-03-01T10:22:03;31.63;;;14.73;;
65799;SDS011;52544;48.116;11.660;2023-03-01T10:24:35;33.65;;;14.52;;
65799;SDS011;52544;48.116;11.660;2023-03-01T10:27:04;31.40;;;15.27;;
65799;SDS011;52544;48.116;11.660;2023-03-01T10:32:32;35.78;;;14.82;;
65799;SDS011;52544;48.116;11.660;2023-03-01T10:35:27;33.88;;;15.63;;
65799;SDS011;52544;48.116;11.660;2023-03-01T10:38:25;29.65;;;13.68;;
65799;SDS011;52544;48.116;11.660;2023-03-01T10:41:00;32.50;;;14.38;;
65799;SDS011;52544;48.116;11.660;2023-03-01T10:44:09;39.95;;;15.85;;
65799;SDS011;52544;48.116;11.660;2023-03-01T10:47:46;28.63;;;14.02;;
65799;SDS011;52544;48.116;11.660;2023-03-01T10:54:03;29.48;;;13.80;;
65799;SDS011;52544;48.116;11.660;2023-03-01T10:57:24;33.40;;;15.05;;
65799;SDS011;52544;48.116;11.660;2023-03-01T11:00:34;27.60;;;14.77;;
65799;SDS011;52544;48.116;11.660;2023-03-01T11:07:13;30.38;;;15.45;;
65799;SDS011;52544;48.116;11.660;2023-03-01T11:10:19;30.38;;;14.05;;
65799;SDS011;52544;48.116;11.660;2023-03-01T11:13:31;32.45;;;15.73;;
65799;SDS011;52544;48.116;11.660;2023-03-01T11:16:38;29.55;;;16.25;;
65799;SDS011;52544;48.116;11.660;2023-03-01T11:20:02;33.28;;;15.95;;
65799;SDS011;52544;48.116;11.660;2023-03-01T11:23:21;32.30;;;15.30;;
65799;SDS011;52544;48.116;11.660;2023-03-01T11:26:28;33.22;;;15.75;;
65799;SDS011;52544;48.116;11.660;2023-03-01T11:29:41;31.65;;;15.55;;
65799;SDS011;52544;48.116;11.660;2023-03-01T11:32:10;30.70;;;15.65;;
65799;SDS011;52544;48.116;11.660;2023-03-01T11:34:47;31.70;;;15.63;;
65799;SDS011;52544;48.116;11.660;2023-03-01T11:37:40;31.40;;;16.05;;
65799;SDS011;52544;48.116;11.660;2023-03-01T11:46:51;32.17;;;16.95;;
65799;SDS011;52544;48.116;11.660;2023-03-01T11:52:57;33.25;;;16.88;;
65799;SDS011;52544;48.116;11.660;2023-03-01T12:17:00;31.50;;;15.95;;
65799;SDS011;52544;48.116;11.660;2023-03-01T12:20:34;28.95;;;15.73;;
65799;SDS011;52544;48.116;11.660;2023-03-01T12:29:00;47.53;;;17.40;;
65799;SDS011;52544;48.116;11.660;2023-03-01T12:37:18;30.30;;;16.27;;
65799;SDS011;52544;48.116;11.660;2023-03-01T12:45:48;31.45;;;16.02;;
65799;SDS011;52544;48.116;11.660;2023-03-01T12:52:06;35.22;;;15.77;;
65799;SDS011;52544;48.116;11.660;2023-03-01T12:55:31;35.33;;;16.10;;
65799;SDS011;52544;48.116;11.660;2023-03-01T13:03:27;33.17;;;16.02;;
65799;SDS011;52544;48.116;11.660;2023-03-01T13:08:45;37.05;;;16.85;;
65799;SDS011;52544;48.116;11.660;2023-03-01T13:11:24;34.95;;;16.55;;
65799;SDS011;52544;48.116;11.660;2023-03-01T13:13:50;33.90;;;16.23;;
65799;SDS011;52544;48.116;11.660;2023-03-01T13:16:22;32.72;;;16.02;;
65799;SDS011;52544;48.116;11.660;2023-03-01T13:22:27;32.08;;;16.20;;
65799;SDS011;52544;48.116;11.660;2023-03-01T13:25:14;35.35;;;16.35;;
65799;SDS011;52544;48.116;11.660;2023-03-01T13:30:56;29.63;;;15.63;;
65799;SDS011;52544;48.116;11.660;2023-03-01T13:35:48;33.45;;;16.90;;
65799;SDS011;52544;48.116;11.660;2023-03-01T13:41:02;34.38;;;16.58;;
65799;SDS011;52544;48.116;11.660;2023-03-01T13:43:29;33.35;;;16.67;;
65799;SDS011;52544;48.116;11.660;2023-03-01T13:45:56;37.88;;;16.42;;
65799;SDS011;52544;48.116;11.660;2023-03-01T13:49:00;31.33;;;16.38;;
65799;SDS011;52544;48.116;11.660;2023-03-01T13:51:26;32.05;;;16.42;;
65799;SDS011;52544;48.116;11.660;2023-03-01T13:54:29;32.42;;;17.00;;
65799;SDS011;52544;48.116;11.660;2023-03-01T13:57:00;32.33;;;17.10;;
65799;SDS011;52544;48.116;11.660;2023-03-01T13:59:26;35.78;;;17.65;;
65799;SDS011;52544;48.116;11.660;2023-03-01T14:01:55;30.02;;;16.05;;
65799;SDS011;52544;48.116;11.660;2023-03-01T14:04:26;35.75;;;16.40;;
65799;SDS011;52544;48.116;11.660;2023-03-01T14:10:22;36.47;;;16.73;;
65799;SDS011;52544;48.116;11.660;2023-03-01T14:13:02;31.52;;;16.45;;
65799;SDS011;52544;48.116;11.660;2023-03-01T14:15:56;30.70;;;15.80;;
65799;SDS011;52544;48.116;11.660;2023-03-01T14:18:47;30.00;;;16.40;;
65799;SDS011;52544;48.116;11.660;2023-03-01T14:24:44;31.05;;;16.55;;
65799;SDS011;52544;48.116;11.660;2023-03-01T14:27:14;34.53;;;16.15;;
65799;SDS011;52544;48.116;11.660;2023-03-01T14:29:41;39.83;;;16.92;;
65799;SDS011;52544;48.116;11.660;2023-03-01T14:32:26;33.97;;;15.98;;
65799;SDS011;52544;48.116;11.660;2023-03-01T14:35:01;33.38;;;16.10;;
65799;SDS011;52544;48.116;11.660;2023-03-01T14:37:28;29.83;;;15.70;;
65799;SDS011;52544;48.116;11.660;2023-03-01T14:40:35;30.88;;;15.95;;
65799;SDS011;52544;48.116;11.660;2023-03-01T14:43:03;31.75;;;16.08;;
65799;SDS011;52544;48.116;11.660;2023-03-01T14:45:38;28.77;;;15.45;;
65799;SDS011;52544;48.116;11.660;2023-03-01T14:48:12;31.67;;;15.68;;
65799;SDS011;52544;48.116;11.660;2023-03-01T14:51:25;29.17;;;14.40;;
65799;SDS011;52544;48.116;11.660;2023-03-01T14:53:51;33.22;;;15.55;;
65799;SDS011;52544;48.116;11.660;2023-03-01T14:56:43;30.02;;;14.52;;
65799;SDS011;52544;48.116;11.660;2023-03-01T14:59:25;29.98;;;13.55;;
65799;SDS011;52544;48.116;11.660;2023-03-01T15:02:03;28.77;;;14.40;;
65799;SDS011;52544;48.116;11.660;2023-03-01T15:04:54;30.15;;;14.40;;
65799;SDS011;52544;48.116;11.660;2023-03-01T15:07:26;35.60;;;15.13;;
65799;SDS011;52544;48.116;11.660;2023-03-01T15:09:59;33.80;;;15.73;;
65799;SDS011;52544;48.116;11.660;2023-03-01T15:13:13;34.78;;;14.45;;
65799;SDS011;52544;48.116;11.660;2023-03-01T15:15:46;27.33;;;13.88;;
65799;SDS011;52544;48.116;11.660;2023-03-01T15:18:20;32.95;;;14.15;;
65799;SDS011;52544;48.116;11.660;2023-03-01T15:20:51;27.20;;;13.35;;
65799;SDS011;52544;48.116;11.660;2023-03-01T15:23:25;29.67;;;13.82;;
65799;SDS011;52544;48.116;11.660;2023-03-01T15:25:52;29.92;;;14.68;;
65799;SDS011;52544;48.116;11.660;2023-03-01T15:28:23;27.40;;;14.27;;
65799;SDS011;52544;48.116;11.660;2023-03-01T15:30:58;30.45;;;14.77;;
65799;SDS011;52544;48.116;11.660;2023-03-01T15:33:37;31.52;;;14.93;;
65799;SDS011;52544;48.116;11.660;2023-03-01T15:36:29;27.58;;;13.90;;
65799;SDS011;52544;48.116;11.660;2023-03-01T15:39:03;29.48;;;14.40;;
65799;SDS011;52544;48.116;11.660;2023-03-01T15:41:30;28.50;;;13.98;;
65799;SDS011;52544;48.116;11.660;2023-03-01T15:44:25;26.35;;;13.48;;
65799;SDS011;52544;48.116;11.660;2023-03-01T15:47:32;29.00;;;13.15;;
65799;SDS011;52544;48.116;11.660;2023-03-01T15:50:40;38.03;;;13.65;;
65799;SDS011;52544;48.116;11.660;2023-03-01T15:53:51;29.65;;;14.35;;
65799;SDS011;52544;48.116;11.660;2023-03-01T15:56:58;30.85;;;13.77;;
65799;SDS011;52544;48.116;11.660;2023-03-01T16:00:04;28.45;;;13.38;;
65799;SDS011;52544;48.116;11.660;2023-03-01T16:03:17;28.45;;;13.63;;
65799;SDS011;52544;48.116;11.660;2023-03-01T16:06:27;32.08;;;14.07;;
65799;SDS011;52544;48.116;11.660;2023-03-01T16:09:33;32.58;;;13.23;;
65799;SDS011;52544;48.116;11.660;2023-03-01T16:12:39;29.38;;;14.13;;
65799;SDS011;52544;48.116;11.660;2023-03-01T16:15:18;34.67;;;14.20;;
65799;SDS011;52544;48.116;11.660;2023-03-01T16:17:46;53.28;;;22.55;;
65799;SDS011;52544;48.116;11.660;2023-03-01T16:20:12;30.92;;;14.38;;
65799;SDS011;52544;48.116;11.660;2023-03-01T16:22:52;30.08;;;13.77;;
65799;SDS011;52544;48.116;11.660;2023-03-01T16:25:19;33.70;;;15.10;;
65799;SDS011;52544;48.116;11.660;2023-03-01T16:27:46;33.70;;;13.02;;
65799;SDS011;52544;48.116;11.660;2023-03-01T16:30:25;36.45;;;15.15;;
65799;SDS011;52544;48.116;11.660;2023-03-01T16:33:25;31.70;;;13.40;;
65799;SDS011;52544;48.116;11.660;2023-03-01T16:35:50;33.50;;;13.00;;
65799;SDS011;52544;48.116;11.660;2023-03-01T16:38:16;28.33;;;13.38;;
65799;SDS011;52544;48.116;11.660;2023-03-01T16:40:41;30.42;;;13.65;;
65799;SDS011;52544;48.116;11.660;2023-03-01T16:43:12;31.48;;;14.45;;
65799;SDS011;52544;48.116;11.660;2023-03-01T16:45:38;31.20;;;14.05;;
65799;SDS011;52544;48.116;11.660;2023-03-01T16:48:14;33.40;;;13.20;;
65799;SDS011;52544;48.116;11.660;2023-03-01T16:51:05;31.05;;;13.77;;
65799;SDS011;52544;48.116;11.660;2023-03-01T16:53:32;28.45;;;14.00;;
65799;SDS011;52544;48.116;11.660;2023-03-01T16:55:59;30.15;;;14.40;;
65799;SDS011;52544;48.116;11.660;2023-03-01T16:58:27;31.02;;;13.98;;
65799;SDS011;52544;48.116;11.660;2023-03-01T17:00:55;26.08;;;12.85;;
65799;SDS011;52544;48.116;11.660;2023-03-01T17:03:27;47.22;;;20.58;;
65799;SDS011;52544;48.116;11.660;2023-03-01T17:05:53;44.65;;;18.60;;
65799;SDS011;52544;48.116;11.660;2023-03-01T17:08:51;59.30;;;23.45;;
65799;SDS011;52544;48.116;11.660;2023-03-01T17:11:25;41.50;;;18.42;;